createdAt,value
2018-08-18T00:00:31.717Z,86.10
2018-08-18T00:03:00.796Z,86.30
2018-08-18T00:05:29.889Z,86.00
2018-08-18T00:07:58.943Z,85.50
2018-08-18T00:10:28.065Z,85.40
2018-08-18T00:12:57.332Z,85.60
2018-08-18T00:15:26.515Z,87.20
2018-08-18T00:17:55.581Z,88.20
2018-08-18T00:20:25.580Z,88.20
2018-08-18T00:22:54.648Z,87.00
2018-08-18T00:25:23.692Z,87.30
2018-08-18T00:27:52.963Z,88.00
2018-08-18T00:30:26.504Z,87.70
2018-08-18T00:32:55.630Z,88.40
2018-08-18T00:35:25.013Z,88.70
2018-08-18T00:37:54.583Z,88.90
2018-08-18T00:40:23.880Z,89.20
2018-08-18T00:42:53.207Z,89.60
2018-08-18T00:45:22.242Z,89.60
2018-08-18T00:47:52.256Z,90.00
2018-08-18T00:50:33.855Z,90.10
2018-08-18T00:53:03.615Z,90.30
2018-08-18T00:55:33.118Z,90.40
2018-08-18T00:58:02.264Z,90.60
2018-08-18T01:00:31.276Z,90.70
2018-08-18T01:03:01.331Z,90.80
2018-08-18T01:05:30.754Z,91.10
2018-08-18T01:08:00.113Z,91.10
2018-08-18T01:10:29.209Z,91.40
2018-08-18T01:12:58.317Z,91.60
2018-08-18T01:15:28.376Z,91.80
2018-08-18T01:17:57.750Z,91.80
2018-08-18T01:20:27.185Z,92.00
2018-08-18T01:23:00.245Z,92.30
2018-08-18T01:25:29.778Z,92.30
2018-08-18T01:27:59.981Z,92.50
2018-08-18T01:30:29.607Z,92.50
2018-08-18T01:32:59.046Z,92.40
2018-08-18T01:35:28.119Z,92.40
2018-08-18T01:37:57.165Z,92.70
2018-08-18T01:40:26.209Z,92.80
2018-08-18T01:42:55.184Z,92.80
2018-08-18T01:45:24.238Z,92.80
2018-08-18T01:47:53.341Z,92.80
2018-08-18T01:50:22.380Z,93.20
2018-08-18T01:52:51.413Z,93.10
2018-08-18T01:55:20.438Z,93.20
2018-08-18T01:57:49.480Z,93.30
2018-08-18T02:00:26.399Z,93.30
2018-08-18T02:02:55.655Z,93.30
2018-08-18T02:05:25.989Z,93.50
2018-08-18T02:07:55.153Z,93.60
2018-08-18T02:10:24.191Z,93.50
2018-08-18T02:13:00.038Z,93.70
2018-08-18T02:15:29.747Z,93.90
2018-08-18T02:17:59.171Z,93.80
2018-08-18T02:20:28.541Z,93.70
2018-08-18T02:22:57.596Z,93.70
2018-08-18T02:25:26.654Z,93.70
2018-08-18T02:27:55.888Z,93.60
2018-08-18T02:30:24.908Z,93.70
2018-08-18T02:32:53.947Z,93.70
2018-08-18T02:35:23.139Z,93.70
2018-08-18T02:37:52.282Z,93.70
2018-08-18T02:40:21.406Z,93.90
2018-08-18T02:42:50.623Z,94.00
2018-08-18T02:45:19.620Z,94.20
2018-08-18T02:47:53.261Z,94.70
2018-08-18T02:50:22.277Z,94.80
2018-08-18T02:52:51.643Z,94.80
2018-08-18T02:55:20.719Z,94.90
2018-08-18T02:57:49.755Z,95.00
2018-08-18T03:00:24.781Z,95.00
2018-08-18T03:02:53.803Z,95.00
2018-08-18T03:05:22.842Z,95.00
2018-08-18T03:07:52.808Z,94.90
2018-08-18T03:10:23.570Z,94.60
2018-08-18T03:12:56.183Z,94.70
2018-08-18T03:15:58.316Z,94.50
2018-08-18T03:18:38.663Z,94.70
2018-08-18T03:21:07.753Z,95.20
2018-08-18T03:23:36.779Z,95.30
2018-08-18T03:26:06.202Z,95.10
2018-08-18T03:28:40.672Z,95.30
2018-08-18T03:31:10.235Z,95.30
2018-08-18T03:33:39.245Z,95.50
2018-08-18T03:36:23.631Z,95.70
2018-08-18T03:38:54.845Z,95.80
2018-08-18T03:41:24.752Z,96.00
2018-08-18T03:43:54.498Z,95.90
2018-08-18T03:46:23.676Z,96.00
2018-08-18T03:48:53.013Z,95.90
2018-08-18T03:51:31.169Z,95.90
2018-08-18T03:54:01.123Z,95.80
2018-08-18T03:56:30.307Z,96.10
2018-08-18T03:58:59.921Z,95.70
2018-08-18T04:01:44.904Z,95.80
2018-08-18T04:04:15.051Z,95.70
2018-08-18T04:06:45.327Z,96.10
2018-08-18T04:09:18.861Z,96.20
2018-08-18T04:11:48.056Z,96.10
2018-08-18T04:14:20.029Z,95.80
2018-08-18T04:16:55.400Z,96.20
2018-08-18T04:19:24.448Z,96.30
2018-08-18T04:21:54.637Z,96.40
2018-08-18T04:24:30.152Z,96.40
2018-08-18T04:26:59.379Z,96.40
2018-08-18T04:29:28.466Z,96.80
2018-08-18T04:31:59.537Z,96.60
2018-08-18T04:34:28.745Z,97.00
2018-08-18T04:36:57.864Z,97.20
2018-08-18T04:39:26.892Z,97.30
2018-08-18T04:41:55.943Z,97.40
2018-08-18T04:44:24.961Z,97.30
2018-08-18T04:46:54.000Z,97.40
2018-08-18T04:49:23.007Z,97.10
2018-08-18T04:51:52.091Z,97.30
2018-08-18T04:54:21.126Z,97.20
2018-08-18T04:56:50.192Z,97.10
2018-08-18T04:59:19.358Z,97.20
2018-08-18T05:01:48.968Z,96.80
2018-08-18T05:04:18.011Z,97.00
2018-08-18T05:06:47.134Z,97.20
2018-08-18T05:09:16.204Z,97.00
2018-08-18T05:11:45.654Z,96.80
2018-08-18T05:14:14.834Z,96.40
2018-08-18T05:16:43.873Z,96.80
2018-08-18T05:19:12.999Z,96.70
2018-08-18T05:21:42.603Z,96.30
2018-08-18T05:24:23.127Z,96.10
2018-08-18T05:26:53.430Z,96.40
2018-08-18T05:29:22.719Z,96.20
2018-08-18T05:31:51.799Z,96.00
2018-08-18T05:34:20.828Z,96.00
2018-08-18T05:36:49.953Z,95.70
2018-08-18T05:39:18.991Z,95.80
2018-08-18T05:41:48.443Z,95.70
2018-08-18T05:44:17.571Z,96.00
2018-08-18T05:46:46.632Z,95.90
2018-08-18T05:49:16.762Z,95.90
2018-08-18T05:51:48.661Z,95.90
2018-08-18T05:54:26.163Z,95.60
2018-08-18T05:56:55.725Z,95.40
2018-08-18T05:59:24.792Z,95.30
2018-08-18T06:01:53.838Z,95.50
2018-08-18T06:04:22.905Z,95.10
2018-08-18T06:06:52.689Z,94.70
2018-08-18T06:09:22.974Z,94.20
2018-08-18T06:11:52.362Z,94.30
2018-08-18T06:14:21.694Z,94.10
2018-08-18T06:16:50.945Z,94.00
2018-08-18T06:19:20.497Z,94.00
2018-08-18T06:21:49.648Z,93.80
2018-08-18T06:24:19.026Z,93.60
2018-08-18T06:26:48.075Z,93.10
2018-08-18T06:29:17.130Z,93.00
2018-08-18T06:31:59.070Z,92.60
2018-08-18T06:34:30.652Z,92.50
2018-08-18T06:37:01.650Z,92.30
2018-08-18T06:39:46.398Z,92.00
2018-08-18T06:42:28.296Z,91.60
2018-08-18T06:44:57.349Z,91.00
2018-08-18T06:47:26.389Z,90.60
2018-08-18T06:49:55.814Z,90.50
2018-08-18T06:52:24.949Z,90.20
2018-08-18T06:54:55.594Z,90.20
2018-08-18T06:57:36.210Z,89.90
2018-08-18T07:00:10.712Z,89.60
2018-08-18T07:02:39.927Z,89.90
2018-08-18T07:05:13.855Z,89.20
2018-08-18T07:07:43.655Z,89.20
2018-08-18T07:10:24.915Z,88.80
2018-08-18T07:12:55.170Z,88.00
2018-08-18T07:15:25.649Z,87.40
2018-08-18T07:17:54.682Z,86.50
2018-08-18T07:20:24.066Z,86.20
2018-08-18T07:22:53.796Z,86.20
2018-08-18T07:25:22.962Z,85.90
2018-08-18T07:27:59.137Z,85.20
2018-08-18T07:30:29.347Z,85.10
2018-08-18T07:32:58.645Z,85.60
2018-08-18T07:35:27.975Z,85.60
2018-08-18T07:37:57.132Z,85.70
2018-08-18T07:40:32.372Z,85.20
2018-08-18T07:43:03.420Z,84.00
2018-08-18T07:45:32.943Z,83.40
2018-08-18T07:48:02.235Z,82.80
2018-08-18T07:50:31.941Z,82.00
2018-08-18T07:53:01.774Z,81.30
2018-08-18T07:55:31.138Z,81.80
2018-08-18T07:58:01.478Z,81.20
2018-08-18T08:00:32.442Z,80.70
2018-08-18T08:03:04.111Z,80.20
2018-08-18T08:05:33.573Z,80.10
2018-08-18T08:08:02.775Z,79.20
2018-08-18T08:10:32.201Z,79.30
2018-08-18T08:13:01.480Z,78.50
2018-08-18T08:15:30.787Z,78.40
2018-08-18T08:18:00.197Z,77.10
2018-08-18T08:20:29.777Z,76.80
2018-08-18T08:22:59.232Z,77.10
2018-08-18T08:25:28.296Z,76.10
2018-08-18T08:27:57.332Z,76.80
2018-08-18T08:30:27.169Z,76.90
2018-08-18T08:32:56.567Z,75.10
2018-08-18T08:35:25.645Z,75.00
2018-08-18T08:37:54.958Z,74.90
2018-08-18T08:40:24.835Z,73.00
2018-08-18T08:42:53.935Z,72.60
2018-08-18T08:45:24.299Z,72.30
2018-08-18T08:47:53.481Z,71.70
2018-08-18T08:50:23.934Z,70.80
2018-08-18T08:52:55.498Z,71.10
2018-08-18T08:55:25.807Z,71.30
2018-08-18T08:57:55.101Z,71.10
2018-08-18T09:00:24.528Z,70.80
2018-08-18T09:02:53.595Z,71.00
2018-08-18T09:05:22.787Z,69.30
2018-08-18T09:07:51.794Z,68.80
2018-08-18T09:10:20.973Z,68.10
2018-08-18T09:12:50.199Z,67.20
2018-08-18T09:15:19.641Z,68.00
2018-08-18T09:17:48.720Z,66.20
2018-08-18T09:20:19.234Z,66.00
2018-08-18T09:23:00.318Z,66.10
2018-08-18T09:25:31.024Z,65.70
2018-08-18T09:28:02.370Z,65.40
2018-08-18T09:30:32.477Z,64.60
2018-08-18T09:33:03.724Z,64.30
2018-08-18T09:35:47.890Z,63.00
2018-08-18T09:38:17.199Z,61.90
2018-08-18T09:40:46.521Z,62.80
2018-08-18T09:43:21.032Z,61.80
2018-08-18T09:45:50.627Z,58.80
2018-08-18T09:48:19.694Z,59.70
2018-08-18T09:50:48.932Z,57.60
2018-08-18T09:53:17.974Z,57.50
2018-08-18T09:55:47.267Z,56.90
2018-08-18T09:58:16.288Z,56.40
2018-08-18T10:00:45.315Z,55.10
2018-08-18T10:03:14.322Z,55.10
2018-08-18T10:05:43.359Z,53.60
2018-08-18T10:08:12.443Z,54.70
2018-08-18T10:10:41.520Z,54.40
2018-08-18T10:13:10.581Z,53.90
2018-08-18T10:15:39.725Z,54.80
2018-08-18T10:18:09.117Z,55.00
2018-08-18T10:20:43.461Z,55.30
2018-08-18T10:23:12.631Z,53.70
2018-08-18T10:25:41.845Z,52.80
2018-08-18T10:28:10.868Z,52.10
2018-08-18T10:30:40.066Z,51.60
2018-08-18T10:33:09.457Z,52.10
2018-08-18T10:35:38.688Z,52.10
2018-08-18T10:38:07.727Z,51.50
2018-08-18T10:40:36.821Z,51.50
2018-08-18T10:43:05.937Z,51.50
2018-08-18T10:45:34.987Z,52.50
2018-08-18T10:48:04.408Z,51.70
2018-08-18T10:51:44.524Z,51.30
2018-08-18T10:54:13.744Z,50.00
2018-08-18T10:56:43.175Z,49.90
2018-08-18T10:59:14.734Z,49.00
2018-08-18T11:02:00.640Z,49.00
2018-08-18T11:04:32.392Z,49.20
2018-08-18T11:07:01.942Z,48.40
2018-08-18T11:09:32.101Z,47.70
2018-08-18T11:12:01.765Z,48.70
2018-08-18T11:14:30.779Z,47.80
2018-08-18T11:16:59.861Z,47.00
2018-08-18T11:19:29.478Z,44.20
2018-08-18T11:22:10.511Z,39.20
2018-08-18T11:24:40.106Z,35.80
2018-08-18T11:27:09.833Z,33.00
2018-08-18T11:29:39.490Z,32.30
2018-08-18T11:32:09.136Z,32.50
2018-08-18T11:34:38.776Z,33.40
2018-08-18T11:37:08.817Z,32.00
2018-08-18T11:39:38.473Z,30.50
2018-08-18T11:42:08.156Z,29.20
2018-08-18T11:44:37.834Z,29.10
2018-08-18T11:47:07.555Z,28.50
2018-08-18T11:49:37.755Z,27.70
2018-08-18T11:52:07.393Z,27.70
2018-08-18T11:54:36.975Z,27.80
2018-08-18T11:57:06.660Z,27.40
2018-08-18T11:59:36.297Z,27.10
2018-08-18T12:02:06.383Z,27.00
2018-08-18T12:04:36.077Z,29.70
2018-08-18T12:07:05.685Z,29.70
2018-08-18T12:09:35.316Z,30.60
2018-08-18T12:12:05.250Z,30.00
2018-08-18T12:14:35.166Z,28.90
2018-08-18T12:17:06.617Z,28.60
2018-08-18T12:19:36.536Z,27.20
2018-08-18T12:22:06.561Z,26.50
2018-08-18T12:24:36.172Z,26.10
2018-08-18T12:27:10.947Z,26.10
2018-08-18T12:29:40.311Z,25.60
2018-08-18T12:32:18.270Z,24.70
2018-08-18T12:34:47.790Z,24.50
2018-08-18T12:37:17.388Z,25.20
2018-08-18T12:39:46.721Z,24.40
2018-08-18T12:42:21.757Z,24.60
2018-08-18T12:44:51.093Z,25.80
2018-08-18T12:47:20.539Z,26.20
2018-08-18T12:50:14.848Z,26.30
2018-08-18T12:52:48.621Z,26.00
2018-08-18T12:55:19.314Z,26.60
2018-08-18T12:57:50.553Z,26.10
2018-08-18T13:00:19.985Z,25.60
2018-08-18T13:02:54.314Z,25.00
2018-08-18T13:05:27.848Z,24.50
2018-08-18T13:07:59.774Z,25.10
2018-08-18T13:10:29.833Z,25.30
2018-08-18T13:12:59.112Z,25.70
2018-08-18T13:15:28.745Z,25.10
2018-08-18T13:17:58.041Z,25.20
2018-08-18T13:20:27.710Z,25.00
2018-08-18T13:22:57.090Z,24.00
2018-08-18T13:25:26.736Z,23.70
2018-08-18T13:27:56.989Z,23.80
2018-08-18T13:30:27.614Z,23.30
2018-08-18T13:32:58.494Z,23.00
2018-08-18T13:35:27.909Z,22.20
2018-08-18T13:37:57.304Z,23.00
2018-08-18T13:40:27.984Z,21.90
2018-08-18T13:42:57.471Z,21.20
2018-08-18T13:45:42.033Z,21.20
2018-08-18T13:48:12.062Z,21.70
2018-08-18T13:50:41.856Z,22.30
2018-08-18T13:53:11.190Z,23.50
2018-08-18T13:55:41.733Z,23.40
2018-08-18T13:58:12.309Z,23.00
2018-08-18T14:00:41.630Z,21.90
2018-08-18T14:03:24.774Z,22.20
2018-08-18T14:05:54.774Z,22.00
2018-08-18T14:08:24.120Z,21.30
2018-08-18T14:10:53.474Z,21.60
2018-08-18T14:13:22.773Z,21.70
2018-08-18T14:15:58.138Z,21.50
2018-08-18T14:18:27.437Z,21.20
2018-08-18T14:21:04.467Z,21.50
2018-08-18T14:23:34.165Z,21.30
2018-08-18T14:26:03.923Z,20.90
2018-08-18T14:28:34.558Z,20.30
2018-08-18T14:31:04.408Z,20.70
2018-08-18T14:33:34.143Z,21.20
2018-08-18T14:36:12.211Z,20.60
2018-08-18T14:38:43.109Z,20.60
2018-08-18T14:41:19.313Z,20.70
2018-08-18T14:43:49.714Z,20.30
2018-08-18T14:46:19.424Z,20.00
2018-08-18T14:48:48.883Z,19.90
2018-08-18T14:51:18.505Z,20.20
2018-08-18T14:53:47.822Z,20.00
2018-08-18T14:56:17.135Z,19.10
2018-08-18T14:58:46.570Z,19.30
2018-08-18T15:01:16.083Z,18.80
2018-08-18T15:03:45.480Z,18.80
2018-08-18T15:06:14.787Z,19.50
2018-08-18T15:08:44.137Z,20.60
2018-08-18T15:11:13.831Z,20.30
2018-08-18T15:13:43.229Z,20.00
2018-08-18T15:16:12.698Z,19.90
2018-08-18T15:18:42.224Z,19.40
2018-08-18T15:21:11.563Z,19.00
2018-08-18T15:23:41.423Z,18.70
2018-08-18T15:26:10.730Z,19.60
2018-08-18T15:28:40.329Z,19.40
2018-08-18T15:31:09.658Z,19.50
2018-08-18T15:33:38.966Z,19.00
2018-08-18T15:36:19.969Z,18.50
2018-08-18T15:38:49.422Z,18.80
2018-08-18T15:41:18.872Z,19.60
2018-08-18T15:43:48.192Z,19.50
2018-08-18T15:46:17.713Z,19.50
2018-08-18T15:48:47.188Z,19.40
2018-08-18T15:51:16.540Z,20.10
2018-08-18T15:53:49.166Z,20.10
2018-08-18T15:56:19.566Z,20.20
2018-08-18T15:58:49.872Z,20.80
2018-08-18T16:01:21.905Z,20.50
2018-08-18T16:03:51.824Z,20.90
2018-08-18T16:06:21.242Z,21.10
2018-08-18T16:08:51.001Z,20.30
2018-08-18T16:11:20.438Z,20.10
2018-08-18T16:13:49.877Z,19.90
2018-08-18T16:16:19.887Z,19.10
2018-08-18T16:18:49.464Z,18.90
2018-08-18T16:21:23.276Z,18.80
2018-08-18T16:23:52.995Z,19.50
2018-08-18T16:26:22.461Z,20.40
2018-08-18T16:28:52.801Z,20.20
2018-08-18T16:31:22.073Z,20.00
2018-08-18T16:33:52.614Z,20.10
2018-08-18T16:36:21.944Z,20.00
2018-08-18T16:38:51.278Z,20.30
2018-08-18T16:41:20.631Z,19.60
2018-08-18T16:43:49.913Z,19.80
2018-08-18T16:46:26.679Z,20.20
2018-08-18T16:48:55.972Z,20.30
2018-08-18T16:51:25.785Z,20.30
2018-08-18T16:53:55.188Z,20.10
2018-08-18T16:56:27.274Z,20.00
2018-08-18T16:58:57.944Z,20.70
2018-08-18T17:01:27.870Z,20.30
2018-08-18T17:03:57.184Z,20.70
2018-08-18T17:06:26.520Z,21.40
2018-08-18T17:08:56.133Z,21.80
2018-08-18T17:11:25.698Z,22.30
2018-08-18T17:13:55.647Z,22.70
2018-08-18T17:16:25.303Z,22.40
2018-08-18T17:18:55.093Z,22.80
2018-08-18T17:21:24.692Z,22.90
2018-08-18T17:23:54.508Z,23.20
2018-08-18T17:26:24.208Z,23.70
2018-08-18T17:28:53.907Z,24.50
2018-08-18T17:31:23.479Z,25.80
2018-08-18T17:33:53.238Z,26.50
2018-08-18T17:36:22.857Z,27.10
2018-08-18T17:38:52.466Z,28.20
2018-08-18T17:41:22.099Z,28.90
2018-08-18T17:43:51.694Z,29.70
2018-08-18T17:46:21.642Z,29.90
2018-08-18T17:48:53.644Z,30.60
2018-08-18T17:51:23.608Z,31.40
2018-08-18T17:53:54.510Z,32.00
2018-08-18T17:56:24.128Z,32.40
2018-08-18T17:58:53.814Z,32.70
2018-08-18T18:01:23.657Z,33.80
2018-08-18T18:03:53.352Z,32.70
2018-08-18T18:06:22.981Z,33.20
2018-08-18T18:08:52.223Z,33.70
2018-08-18T18:11:21.266Z,35.00
2018-08-18T18:13:50.500Z,35.90
2018-08-18T18:16:25.654Z,35.00
2018-08-18T18:18:56.948Z,35.80
2018-08-18T18:21:26.005Z,37.70
2018-08-18T18:23:55.121Z,37.40
2018-08-18T18:26:24.236Z,37.10
2018-08-18T18:28:53.271Z,37.60
2018-08-18T18:31:22.365Z,37.80
2018-08-18T18:33:56.601Z,37.50
2018-08-18T18:36:25.630Z,38.10
2018-08-18T18:38:56.211Z,38.60
2018-08-18T18:41:26.136Z,39.00
2018-08-18T18:43:56.720Z,38.80
2018-08-18T18:46:26.220Z,38.70
2018-08-18T18:48:55.462Z,39.30
2018-08-18T18:51:25.006Z,39.10
2018-08-18T18:53:56.488Z,39.20
2018-08-18T18:56:25.579Z,40.20
2018-08-18T18:58:54.889Z,40.90
2018-08-18T19:01:24.016Z,40.50
2018-08-18T19:03:53.268Z,41.70
2018-08-18T19:06:22.367Z,40.80
2018-08-18T19:09:00.136Z,40.80
2018-08-18T19:11:29.235Z,40.80
2018-08-18T19:13:58.901Z,41.70
2018-08-18T19:16:27.968Z,41.80
2018-08-18T19:18:57.110Z,42.00
2018-08-18T19:21:32.772Z,42.50
2018-08-18T19:24:06.509Z,42.50
2018-08-18T19:26:46.179Z,43.00
2018-08-18T19:29:15.399Z,43.80
2018-08-18T19:31:44.809Z,43.80
2018-08-18T19:34:15.134Z,43.60
2018-08-18T19:36:55.937Z,44.40
2018-08-18T19:39:26.876Z,45.30
2018-08-18T19:42:06.222Z,44.60
2018-08-18T19:44:40.225Z,44.40
2018-08-18T19:47:10.508Z,44.70
2018-08-18T19:49:43.477Z,45.00
2018-08-18T19:52:14.856Z,45.30
2018-08-18T19:54:47.397Z,46.00
2018-08-18T19:57:26.929Z,46.90
2018-08-18T20:00:00.803Z,47.00
2018-08-18T20:02:45.156Z,47.20
2018-08-18T20:05:14.237Z,48.30
2018-08-18T20:07:43.688Z,51.60
2018-08-18T20:10:12.766Z,53.50
2018-08-18T20:12:41.884Z,53.80
2018-08-18T20:15:11.328Z,52.70
2018-08-18T20:17:41.444Z,52.80
2018-08-18T20:20:10.547Z,53.10
2018-08-18T20:22:39.941Z,54.30
2018-08-18T20:25:10.077Z,54.30
2018-08-18T20:27:39.163Z,54.50
2018-08-18T20:30:08.298Z,54.50
2018-08-18T20:32:37.349Z,54.70
2018-08-18T20:35:06.510Z,55.10
2018-08-18T20:37:35.628Z,55.00
2018-08-18T20:40:05.936Z,55.10
2018-08-18T20:42:41.110Z,55.10
2018-08-18T20:45:11.500Z,55.80
2018-08-18T20:47:42.133Z,55.50
2018-08-18T20:50:12.144Z,55.50
2018-08-18T20:52:41.516Z,55.70
2018-08-18T20:55:10.777Z,56.00
2018-08-18T20:57:40.185Z,56.50
2018-08-18T21:00:10.739Z,56.80
2018-08-18T21:02:40.416Z,56.90
2018-08-18T21:05:10.396Z,56.80
2018-08-18T21:07:39.478Z,56.70
2018-08-18T21:10:11.755Z,56.60
2018-08-18T21:12:45.381Z,56.80
2018-08-18T21:15:15.459Z,57.40
2018-08-18T21:17:44.606Z,57.70
2018-08-18T21:20:16.026Z,57.60
2018-08-18T21:22:45.300Z,57.90
2018-08-18T21:25:15.046Z,57.60
2018-08-18T21:27:44.112Z,57.60
2018-08-18T21:30:17.619Z,58.00
2018-08-18T21:32:46.658Z,58.00
2018-08-18T21:35:15.751Z,58.30
2018-08-18T21:37:45.288Z,58.70
2018-08-18T21:40:14.392Z,59.10
2018-08-18T21:42:43.681Z,59.50
2018-08-18T21:45:13.148Z,60.10
2018-08-18T21:47:42.269Z,60.00
2018-08-18T21:50:11.410Z,60.30
2018-08-18T21:52:40.417Z,60.90
2018-08-18T21:55:09.555Z,61.00
2018-08-18T21:57:52.229Z,61.50
2018-08-18T22:00:21.350Z,61.80
2018-08-18T22:02:50.809Z,61.80
2018-08-18T22:05:19.887Z,62.10
2018-08-18T22:07:51.702Z,62.40
2018-08-18T22:10:21.234Z,62.90
2018-08-18T22:12:50.733Z,63.30
2018-08-18T22:15:20.803Z,64.30
2018-08-18T22:17:51.189Z,65.10
2018-08-18T22:20:21.481Z,65.60
2018-08-18T22:22:50.961Z,66.10
2018-08-18T22:25:20.142Z,66.60
2018-08-18T22:27:52.586Z,67.40
2018-08-18T22:30:25.653Z,68.10
2018-08-18T22:32:54.778Z,68.00
2018-08-18T22:35:24.112Z,68.80
2018-08-18T22:37:53.310Z,69.40
2018-08-18T22:40:22.836Z,70.10
2018-08-18T22:42:51.946Z,70.40
2018-08-18T22:45:24.948Z,70.50
2018-08-18T22:47:54.090Z,70.30
2018-08-18T22:50:23.214Z,70.40
2018-08-18T22:52:54.320Z,70.20
2018-08-18T22:55:23.344Z,70.70
2018-08-18T22:57:59.531Z,70.80
2018-08-18T23:00:28.614Z,71.20
2018-08-18T23:02:58.072Z,72.50
2018-08-18T23:05:27.123Z,73.50
2018-08-18T23:07:57.625Z,74.00
2018-08-18T23:10:29.844Z,74.30
2018-08-18T23:12:59.394Z,74.60
2018-08-18T23:15:28.520Z,74.50
2018-08-18T23:17:57.941Z,75.30
2018-08-18T23:20:27.253Z,75.00
2018-08-18T23:23:01.356Z,75.90
2018-08-18T23:25:32.716Z,75.80
2018-08-18T23:28:01.792Z,75.50
2018-08-18T23:30:36.126Z,77.60
2018-08-18T23:33:07.056Z,79.40
2018-08-18T23:35:36.244Z,79.20
2018-08-18T23:38:05.421Z,79.20
2018-08-18T23:40:34.818Z,79.00
2018-08-18T23:43:03.970Z,79.80
2018-08-18T23:45:39.804Z,80.20
2018-08-18T23:48:11.366Z,80.30
2018-08-18T23:50:41.476Z,81.00
2018-08-18T23:53:13.408Z,81.10
2018-08-18T23:55:48.759Z,81.40
2018-08-18T23:58:20.739Z,82.30
